createdAt,value
2022-09-21T00:01:29.222Z,8.13
2022-09-21T00:04:00.103Z,8.12
2022-09-21T00:06:30.228Z,8.12
2022-09-21T00:08:57.938Z,8.10
2022-09-21T00:11:29.228Z,8.08
2022-09-21T00:14:01.018Z,8.07
2022-09-21T00:16:32.044Z,8.06
2022-09-21T00:19:00.807Z,8.02
2022-09-21T00:21:28.570Z,8.05
2022-09-21T00:23:56.347Z,8.05
2022-09-21T00:26:26.383Z,8.04
2022-09-21T00:28:55.891Z,8.03
2022-09-21T00:31:24.078Z,8.04
2022-09-21T00:33:52.337Z,8.04
2022-09-21T00:36:22.491Z,8.05
2022-09-21T00:38:53.267Z,8.07
2022-09-21T00:41:21.227Z,8.10
2022-09-21T00:44:10.997Z,8.12
2022-09-21T00:46:40.357Z,8.10
2022-09-21T00:49:10.000Z,8.09
2022-09-21T00:51:38.148Z,8.07
2022-09-21T00:54:10.587Z,8.03
2022-09-21T00:56:38.707Z,8.03
2022-09-21T00:59:07.007Z,8.03
2022-09-21T01:01:34.883Z,8.04
2022-09-21T01:04:03.153Z,8.05
2022-09-21T01:06:33.512Z,8.06
2022-09-21T01:09:01.554Z,8.08
2022-09-21T01:11:31.635Z,8.07
2022-09-21T01:14:14.307Z,8.05
2022-09-21T01:16:53.835Z,8.07
2022-09-21T01:19:48.517Z,8.08
2022-09-21T01:22:15.907Z,8.07
2022-09-21T01:25:06.626Z,8.09
2022-09-21T01:27:49.957Z,8.10
2022-09-21T01:30:21.677Z,8.09
2022-09-21T01:33:13.978Z,8.11
2022-09-21T01:35:49.156Z,8.10
2022-09-21T01:38:42.462Z,8.12
2022-09-21T01:41:13.625Z,8.12
2022-09-21T01:43:46.257Z,8.10
2022-09-21T01:46:21.068Z,8.08
2022-09-21T01:48:54.787Z,8.07
2022-09-21T01:51:27.066Z,8.07
2022-09-21T01:54:03.656Z,8.07
2022-09-21T01:56:40.964Z,8.02
2022-09-21T01:59:40.532Z,7.99
2022-09-21T02:02:17.229Z,7.97
2022-09-21T02:04:45.181Z,7.94
2022-09-21T02:07:12.725Z,7.91
2022-09-21T02:09:40.481Z,7.88
2022-09-21T02:12:08.056Z,7.82
2022-09-21T02:14:37.696Z,7.78
2022-09-21T02:17:15.184Z,7.75
2022-09-21T02:20:07.816Z,7.68
2022-09-21T02:22:43.946Z,7.64
2022-09-21T02:25:18.326Z,7.59
2022-09-21T02:27:51.842Z,7.56
2022-09-21T02:30:27.467Z,7.54
2022-09-21T02:33:01.316Z,7.50
2022-09-21T02:35:31.467Z,7.49
2022-09-21T02:38:06.282Z,7.53
2022-09-21T02:40:41.155Z,7.55
2022-09-21T02:43:31.705Z,7.56
2022-09-21T02:46:07.054Z,7.51
2022-09-21T02:48:40.201Z,7.48
2022-09-21T02:51:16.262Z,7.42
2022-09-21T02:53:46.871Z,7.44
2022-09-21T02:56:16.178Z,7.45
2022-09-21T02:58:48.875Z,7.41
2022-09-21T03:01:17.631Z,7.40
2022-09-21T03:03:45.042Z,7.39
2022-09-21T03:06:12.546Z,7.41
2022-09-21T03:08:40.304Z,7.41
2022-09-21T03:11:07.794Z,7.41
2022-09-21T03:13:37.206Z,7.41
2022-09-21T03:16:07.361Z,7.40
2022-09-21T03:18:35.254Z,7.39
2022-09-21T03:21:03.574Z,7.38
2022-09-21T03:23:31.136Z,7.39
2022-09-21T03:25:58.878Z,7.42
2022-09-21T03:28:26.676Z,7.40
2022-09-21T03:30:54.533Z,7.40
2022-09-21T03:33:22.294Z,7.43
2022-09-21T03:35:49.704Z,7.40
2022-09-21T03:38:17.664Z,7.42
2022-09-21T03:40:46.605Z,7.45
2022-09-21T03:43:14.353Z,7.46
2022-09-21T03:45:42.743Z,7.47
2022-09-21T03:48:11.635Z,7.52
2022-09-21T03:50:39.724Z,7.58
2022-09-21T03:53:07.664Z,7.58
2022-09-21T03:55:35.243Z,7.61
2022-09-21T03:58:02.976Z,7.59
2022-09-21T04:00:30.760Z,7.64
2022-09-21T04:02:58.257Z,7.66
2022-09-21T04:05:26.095Z,7.64
2022-09-21T04:07:54.675Z,7.66
2022-09-21T04:10:26.845Z,7.66
2022-09-21T04:12:58.018Z,7.65
2022-09-21T04:15:25.645Z,7.64
2022-09-21T04:17:54.175Z,7.66
2022-09-21T04:20:22.675Z,7.64
2022-09-21T04:22:51.644Z,7.66
2022-09-21T04:25:19.600Z,7.65
2022-09-21T04:27:47.224Z,7.64
2022-09-21T04:30:16.432Z,7.64
2022-09-21T04:32:44.525Z,7.62
2022-09-21T04:35:12.075Z,7.62
2022-09-21T04:37:39.623Z,7.62
2022-09-21T04:40:08.107Z,7.59
2022-09-21T04:42:36.094Z,7.58
2022-09-21T04:45:04.194Z,7.55
2022-09-21T04:47:31.915Z,7.52
2022-09-21T04:49:59.373Z,7.48
2022-09-21T04:52:27.004Z,7.47
2022-09-21T04:54:54.583Z,7.45
2022-09-21T04:57:22.055Z,7.41
2022-09-21T04:59:49.543Z,7.39
2022-09-21T05:02:17.125Z,7.38
2022-09-21T05:04:48.750Z,7.33
2022-09-21T05:07:18.333Z,7.32
2022-09-21T05:10:04.189Z,7.28
2022-09-21T05:12:33.952Z,7.27
2022-09-21T05:15:02.340Z,7.31
2022-09-21T05:17:29.933Z,7.30
2022-09-21T05:19:57.524Z,7.33
2022-09-21T05:22:24.958Z,7.38
2022-09-21T05:24:52.524Z,7.43
2022-09-21T05:27:20.071Z,7.50
2022-09-21T05:29:47.862Z,7.57
2022-09-21T05:32:27.479Z,7.64
2022-09-21T05:35:04.429Z,7.70
2022-09-21T05:38:11.199Z,7.81
2022-09-21T05:40:38.868Z,7.88
2022-09-21T05:43:06.672Z,7.89
2022-09-21T05:45:34.504Z,7.96
2022-09-21T05:48:19.052Z,7.99
2022-09-21T05:50:46.506Z,8.06
2022-09-21T05:53:41.263Z,8.09
2022-09-21T05:56:25.205Z,8.19
2022-09-21T05:59:01.673Z,8.16
2022-09-21T06:01:38.791Z,8.19
2022-09-21T06:04:14.329Z,8.30
2022-09-21T06:06:41.776Z,8.33
2022-09-21T06:09:09.334Z,8.38
2022-09-21T06:11:37.172Z,8.47
2022-09-21T06:14:04.609Z,8.50
2022-09-21T06:16:42.684Z,8.53
2022-09-21T06:19:13.975Z,8.63
2022-09-21T06:21:41.434Z,8.72
2022-09-21T06:24:09.079Z,8.83
2022-09-21T06:26:36.654Z,9.04
2022-09-21T06:29:04.409Z,9.27
2022-09-21T06:31:31.922Z,9.83
2022-09-21T06:33:59.438Z,10.61
2022-09-21T06:36:26.942Z,11.19
2022-09-21T06:38:54.439Z,11.75
2022-09-21T06:41:21.953Z,12.39
2022-09-21T06:43:49.368Z,12.57
2022-09-21T06:46:16.979Z,12.55
2022-09-21T06:48:44.474Z,12.27
2022-09-21T06:51:11.933Z,12.28
2022-09-21T06:53:39.421Z,12.36
2022-09-21T06:56:08.646Z,12.00
2022-09-21T06:58:37.961Z,12.07
2022-09-21T07:01:08.073Z,12.03
2022-09-21T07:03:36.805Z,12.01
2022-09-21T07:06:05.060Z,11.91
2022-09-21T07:11:21.251Z,12.06
2022-09-21T07:13:48.741Z,12.17
2022-09-21T07:16:16.699Z,11.97
2022-09-21T07:18:44.537Z,12.07
2022-09-21T07:21:12.391Z,12.31
2022-09-21T07:23:39.791Z,12.47
2022-09-21T07:26:11.412Z,12.85
2022-09-21T07:28:39.833Z,13.32
2022-09-21T07:31:16.907Z,13.51
2022-09-21T07:33:47.292Z,13.46
2022-09-21T07:36:16.691Z,13.34
2022-09-21T07:38:44.643Z,13.18
2022-09-21T07:41:14.452Z,13.07
2022-09-21T07:43:42.328Z,13.11
2022-09-21T07:46:14.743Z,13.12
2022-09-21T07:48:42.691Z,13.09
2022-09-21T07:51:12.787Z,13.32
2022-09-21T07:53:42.387Z,13.62
2022-09-21T07:56:12.641Z,13.62
2022-09-21T07:58:59.572Z,13.70
2022-09-21T08:01:27.823Z,13.73
2022-09-21T08:03:58.089Z,13.64
2022-09-21T08:06:28.351Z,13.64
2022-09-21T08:08:58.004Z,13.81
2022-09-21T08:11:27.636Z,13.75
2022-09-21T08:14:00.411Z,13.96
2022-09-21T08:16:29.292Z,14.08
2022-09-21T08:18:56.957Z,14.36
2022-09-21T08:21:24.500Z,14.78
2022-09-21T08:23:52.021Z,14.82
2022-09-21T08:26:20.777Z,15.11
2022-09-21T08:28:53.335Z,15.16
2022-09-21T08:31:24.488Z,15.62
2022-09-21T08:33:53.120Z,15.61
2022-09-21T08:36:21.048Z,15.79
2022-09-21T08:38:48.532Z,15.46
2022-09-21T08:41:20.910Z,15.03
2022-09-21T08:43:58.897Z,15.05
2022-09-21T08:46:29.202Z,15.40
2022-09-21T08:49:00.067Z,15.95
2022-09-21T08:51:32.478Z,16.24
2022-09-21T08:54:25.380Z,16.14
2022-09-21T08:57:04.859Z,15.79
2022-09-21T08:59:34.682Z,15.58
2022-09-21T09:02:43.760Z,15.74
2022-09-21T09:05:11.117Z,15.56
2022-09-21T09:07:56.209Z,15.63
2022-09-21T09:10:39.682Z,15.66
2022-09-21T09:13:24.170Z,15.37
2022-09-21T09:16:35.024Z,15.11
2022-09-21T09:19:24.550Z,14.79
2022-09-21T09:21:52.410Z,14.57
2022-09-21T09:24:39.049Z,14.36
2022-09-21T09:27:15.382Z,13.72
2022-09-21T09:29:49.559Z,13.74
2022-09-21T09:32:18.094Z,13.98
2022-09-21T09:35:20.296Z,14.02
2022-09-21T09:37:50.816Z,14.39
2022-09-21T09:40:34.035Z,14.96
2022-09-21T09:43:12.651Z,14.97
2022-09-21T09:45:51.949Z,14.71
2022-09-21T09:48:29.377Z,14.85
2022-09-21T09:50:56.901Z,15.58
2022-09-21T09:53:26.978Z,15.97
2022-09-21T09:55:57.014Z,16.22
2022-09-21T09:58:37.990Z,16.01
2022-09-21T10:01:06.031Z,16.51
2022-09-21T10:03:33.659Z,17.19
2022-09-21T10:06:01.158Z,16.80
2022-09-21T10:08:48.710Z,16.91
2022-09-21T10:11:17.076Z,16.80
2022-09-21T10:13:49.220Z,16.40
2022-09-21T10:16:22.892Z,15.89
2022-09-21T10:18:59.700Z,15.08
2022-09-21T10:21:37.554Z,14.80
2022-09-21T10:24:14.278Z,14.81
2022-09-21T10:26:50.480Z,14.76
2022-09-21T10:29:29.548Z,14.81
2022-09-21T10:32:26.687Z,14.65
2022-09-21T10:35:07.783Z,14.14
2022-09-21T10:37:38.852Z,13.65
2022-09-21T10:40:25.357Z,13.32
2022-09-21T10:42:56.360Z,13.85
2022-09-21T10:45:27.380Z,14.23
2022-09-21T10:47:56.428Z,14.18
2022-09-21T10:50:30.321Z,14.33
2022-09-21T10:53:02.356Z,13.96
2022-09-21T10:55:32.216Z,14.10
2022-09-21T10:58:00.296Z,14.47
2022-09-21T11:00:35.581Z,14.44
2022-09-21T11:03:42.119Z,14.92
2022-09-21T11:06:14.939Z,14.84
2022-09-21T11:08:51.779Z,15.29
2022-09-21T11:11:47.409Z,15.68
2022-09-21T11:14:25.168Z,15.63
2022-09-21T11:17:21.959Z,15.71
2022-09-21T11:20:05.858Z,15.85
2022-09-21T11:22:56.717Z,16.07
2022-09-21T11:25:36.816Z,15.62
2022-09-21T11:28:16.878Z,14.43
2022-09-21T11:31:19.611Z,14.57
2022-09-21T11:34:31.859Z,14.50
2022-09-21T11:36:59.358Z,14.35
2022-09-21T11:39:40.178Z,14.39
2022-09-21T11:42:26.030Z,14.36
2022-09-21T11:44:57.257Z,14.64
2022-09-21T11:47:46.439Z,15.41
2022-09-21T11:50:32.487Z,16.04
2022-09-21T11:53:52.247Z,16.32
2022-09-21T11:56:25.549Z,15.91
2022-09-21T11:59:14.806Z,15.50
2022-09-21T12:02:05.443Z,14.50
2022-09-21T12:04:36.026Z,14.36
2022-09-21T12:07:14.084Z,14.04
2022-09-21T12:10:02.067Z,14.03
2022-09-21T12:12:38.108Z,13.97
2022-09-21T12:15:11.846Z,13.93
2022-09-21T12:17:55.408Z,14.02
2022-09-21T12:20:25.839Z,14.21
2022-09-21T12:23:02.246Z,14.78
2022-09-21T12:25:38.277Z,15.15
2022-09-21T12:28:24.709Z,15.05
2022-09-21T12:31:00.616Z,14.88
2022-09-21T12:33:40.756Z,14.90
2022-09-21T12:36:14.865Z,14.98
2022-09-21T12:38:46.670Z,14.90
2022-09-21T12:41:53.895Z,14.88
2022-09-21T12:44:29.073Z,15.17
2022-09-21T12:47:09.529Z,15.55
2022-09-21T12:49:43.576Z,16.10
2022-09-21T12:52:20.257Z,16.06
2022-09-21T12:55:25.060Z,15.96
2022-09-21T12:58:23.843Z,15.69
2022-09-21T13:01:06.067Z,15.43
2022-09-21T13:03:41.606Z,15.38
2022-09-21T13:06:30.053Z,15.35
2022-09-21T13:09:02.734Z,15.32
2022-09-21T13:11:34.617Z,15.25
2022-09-21T13:14:04.853Z,15.17
2022-09-21T13:16:36.453Z,14.85
2022-09-21T13:19:16.937Z,14.82
2022-09-21T13:21:44.808Z,14.74
2022-09-21T13:24:28.615Z,14.57
2022-09-21T13:27:00.147Z,14.59
2022-09-21T13:29:31.587Z,14.87
2022-09-21T13:31:59.601Z,15.10
2022-09-21T13:34:28.592Z,15.41
2022-09-21T13:37:20.078Z,15.20
2022-09-21T13:40:16.332Z,15.03
2022-09-21T13:42:47.752Z,14.97
2022-09-21T13:45:18.765Z,14.91
2022-09-21T13:48:00.365Z,14.53
2022-09-21T13:50:43.883Z,14.64
2022-09-21T13:53:17.221Z,14.72
2022-09-21T13:55:54.949Z,14.82
2022-09-21T13:58:30.080Z,14.69
2022-09-21T14:01:04.654Z,14.65
2022-09-21T14:03:38.994Z,14.55
2022-09-21T14:06:20.563Z,14.45
2022-09-21T14:08:49.527Z,14.41
2022-09-21T14:11:23.953Z,14.42
2022-09-21T14:14:06.756Z,14.41
2022-09-21T14:16:34.520Z,14.38
2022-09-21T14:19:04.426Z,14.25
2022-09-21T14:21:31.851Z,14.19
2022-09-21T14:24:08.991Z,14.14
2022-09-21T14:26:36.500Z,14.04
2022-09-21T14:29:37.409Z,14.00
2022-09-21T14:32:13.631Z,14.12
2022-09-21T14:34:42.639Z,14.19
2022-09-21T14:37:27.544Z,14.18
2022-09-21T14:39:56.898Z,14.25
2022-09-21T14:42:29.233Z,14.43
2022-09-21T14:45:02.292Z,14.57
2022-09-21T14:47:47.531Z,14.68
2022-09-21T14:50:24.089Z,14.47
2022-09-21T14:53:09.882Z,14.41
2022-09-21T14:55:40.388Z,14.19
2022-09-21T14:58:27.880Z,14.02
2022-09-21T15:00:55.560Z,13.64
2022-09-21T15:03:30.851Z,13.01
2022-09-21T15:06:01.071Z,12.94
2022-09-21T15:09:19.100Z,12.74
2022-09-21T15:11:56.678Z,12.73
2022-09-21T15:14:46.386Z,12.66
2022-09-21T15:17:26.619Z,12.54
2022-09-21T15:19:59.950Z,12.45
2022-09-21T15:22:28.381Z,12.40
2022-09-21T15:24:59.228Z,12.38
2022-09-21T15:27:33.611Z,12.27
2022-09-21T15:30:04.655Z,12.16
2022-09-21T15:32:41.618Z,12.16
2022-09-21T15:35:20.229Z,12.14
2022-09-21T15:37:48.469Z,12.15
2022-09-21T15:40:28.101Z,12.18
2022-09-21T15:43:17.021Z,12.19
2022-09-21T15:46:05.658Z,12.22
2022-09-21T15:48:42.447Z,12.29
2022-09-21T15:51:15.679Z,12.33
2022-09-21T15:53:47.585Z,12.38
2022-09-21T15:56:27.759Z,12.37
2022-09-21T15:59:09.185Z,12.32
2022-09-21T16:01:44.185Z,12.31
2022-09-21T16:04:17.002Z,12.28
2022-09-21T16:06:49.509Z,12.22
2022-09-21T16:09:31.861Z,12.14
2022-09-21T16:11:59.449Z,12.14
2022-09-21T16:14:45.355Z,12.15
2022-09-21T16:17:21.211Z,12.08
2022-09-21T16:19:51.719Z,12.06
2022-09-21T16:22:22.914Z,12.02
2022-09-21T16:24:56.066Z,11.94
2022-09-21T16:27:28.847Z,11.94
2022-09-21T16:29:57.658Z,11.90
2022-09-21T16:32:32.022Z,11.86
2022-09-21T16:35:29.186Z,11.81
2022-09-21T16:37:59.026Z,11.78
2022-09-21T16:40:28.363Z,11.71
2022-09-21T16:42:56.818Z,11.67
2022-09-21T16:45:31.483Z,11.61
2022-09-21T16:47:59.766Z,11.56
2022-09-21T16:50:27.166Z,11.52
2022-09-21T16:52:54.673Z,11.43
2022-09-21T16:55:25.478Z,11.36
2022-09-21T16:57:56.067Z,11.29
2022-09-21T17:00:23.708Z,11.19
2022-09-21T17:02:51.277Z,11.15
2022-09-21T17:05:20.747Z,11.06
2022-09-21T17:07:59.558Z,11.00
2022-09-21T17:10:31.873Z,10.92
2022-09-21T17:12:59.458Z,10.87
2022-09-21T17:15:30.823Z,10.81
2022-09-21T17:17:59.059Z,10.75
2022-09-21T17:20:38.388Z,10.68
2022-09-21T17:23:06.157Z,10.64
2022-09-21T17:25:35.008Z,10.56
2022-09-21T17:28:09.586Z,10.50
2022-09-21T17:30:38.207Z,10.42
2022-09-21T17:33:06.124Z,10.37
2022-09-21T17:35:41.693Z,10.30
2022-09-21T17:38:12.552Z,10.28
2022-09-21T17:40:43.106Z,10.22
2022-09-21T17:43:13.618Z,10.21
2022-09-21T17:45:53.077Z,10.19
2022-09-21T17:48:22.507Z,10.15
2022-09-21T17:50:50.827Z,10.14
2022-09-21T17:53:37.026Z,10.11
2022-09-21T17:56:28.983Z,10.06
2022-09-21T17:59:06.988Z,10.02
2022-09-21T18:01:40.102Z,10.01
2022-09-21T18:04:10.903Z,9.98
2022-09-21T18:06:38.720Z,9.96
2022-09-21T18:09:06.627Z,9.94
2022-09-21T18:11:52.443Z,9.90
2022-09-21T18:14:43.437Z,9.85
2022-09-21T18:17:46.115Z,9.82
2022-09-21T18:20:17.586Z,9.79
2022-09-21T18:23:03.055Z,9.77
2022-09-21T18:25:47.940Z,9.72
2022-09-21T18:28:38.255Z,9.70
2022-09-21T18:31:08.498Z,9.67
2022-09-21T18:34:05.647Z,9.63
2022-09-21T18:36:49.716Z,9.63
2022-09-21T18:39:20.196Z,9.61
2022-09-21T18:41:56.617Z,9.59
2022-09-21T18:44:39.607Z,9.56
2022-09-21T18:47:19.353Z,9.54
2022-09-21T18:49:51.336Z,9.51
2022-09-21T18:52:47.583Z,9.48
2022-09-21T18:55:27.105Z,9.49
2022-09-21T18:57:58.597Z,9.48
2022-09-21T19:00:35.507Z,9.46
2022-09-21T19:03:23.639Z,9.43
2022-09-21T19:06:20.726Z,9.38
2022-09-21T19:09:03.087Z,9.35
2022-09-21T19:12:12.063Z,9.33
2022-09-21T19:14:46.215Z,9.33
2022-09-21T19:17:44.156Z,9.33
2022-09-21T19:20:49.886Z,9.30
2022-09-21T19:23:41.485Z,9.29
2022-09-21T19:26:12.347Z,9.28
2022-09-21T19:28:54.905Z,9.25
2022-09-21T19:31:22.714Z,9.27
2022-09-21T19:33:51.398Z,9.25
2022-09-21T19:36:20.480Z,9.23
2022-09-21T19:38:48.245Z,9.21
2022-09-21T19:41:24.675Z,9.19
2022-09-21T19:44:09.169Z,9.16
2022-09-21T19:47:06.781Z,9.14
2022-09-21T19:49:49.265Z,9.09
2022-09-21T19:52:19.406Z,9.07
2022-09-21T19:55:05.699Z,9.04
2022-09-21T19:57:52.416Z,9.01
2022-09-21T20:00:21.215Z,8.97
2022-09-21T20:03:04.272Z,8.93
2022-09-21T20:05:45.976Z,8.91
2022-09-21T20:08:23.104Z,8.91
2022-09-21T20:11:10.544Z,8.90
2022-09-21T20:13:50.073Z,8.91
2022-09-21T20:16:32.533Z,8.86
2022-09-21T20:19:17.722Z,8.80
2022-09-21T20:21:49.143Z,8.79
2022-09-21T20:24:26.122Z,8.79
2022-09-21T20:26:53.850Z,8.77
2022-09-21T20:29:22.086Z,8.76
2022-09-21T20:31:52.881Z,8.77
2022-09-21T20:34:20.834Z,8.75
2022-09-21T20:36:48.335Z,8.73
2022-09-21T20:39:15.875Z,8.70
2022-09-21T20:41:43.335Z,8.69
2022-09-21T20:44:13.334Z,8.71
2022-09-21T20:46:40.856Z,8.67
2022-09-21T20:49:08.735Z,8.66
2022-09-21T20:51:36.291Z,8.66
2022-09-21T20:54:04.296Z,8.66
2022-09-21T20:56:31.832Z,8.65
2022-09-21T20:58:59.597Z,8.63
2022-09-21T21:01:27.235Z,8.59
2022-09-21T21:04:01.886Z,8.58
2022-09-21T21:06:33.837Z,8.56
2022-09-21T21:09:01.403Z,8.55
2022-09-21T21:11:28.860Z,8.54
2022-09-21T21:13:56.653Z,8.50
2022-09-21T21:16:24.185Z,8.50
2022-09-21T21:18:51.695Z,8.55
2022-09-21T21:21:19.175Z,8.52
2022-09-21T21:24:09.266Z,8.54
2022-09-21T21:27:00.237Z,8.54
2022-09-21T21:29:24.620Z,8.54
2022-09-21T21:31:52.157Z,8.54
2022-09-21T21:34:19.854Z,8.55
2022-09-21T21:36:47.323Z,8.56
2022-09-21T21:39:14.801Z,8.56
2022-09-21T21:41:43.361Z,8.58
2022-09-21T21:44:11.655Z,8.59
2022-09-21T21:46:39.250Z,8.59
2022-09-21T21:49:07.245Z,8.58
2022-09-21T21:51:34.670Z,8.58
2022-09-21T21:54:02.180Z,8.58
2022-09-21T21:56:29.865Z,8.58
2022-09-21T21:58:57.352Z,8.60
2022-09-21T22:01:29.466Z,8.60
2022-09-21T22:03:59.993Z,8.59
2022-09-21T22:06:29.312Z,8.60
2022-09-21T22:08:57.747Z,8.60
2022-09-21T22:11:27.264Z,8.63
2022-09-21T22:13:55.664Z,8.63
2022-09-21T22:16:24.890Z,8.66
2022-09-21T22:18:53.152Z,8.65
2022-09-21T22:21:32.334Z,8.66
2022-09-21T22:24:02.557Z,8.66
2022-09-21T22:26:33.134Z,8.66
2022-09-21T22:29:02.193Z,8.67
2022-09-21T22:31:32.712Z,8.67
2022-09-21T22:34:00.864Z,8.69
2022-09-21T22:36:32.043Z,8.72
2022-09-21T22:39:00.072Z,8.74
2022-09-21T22:41:33.670Z,8.72
2022-09-21T22:44:02.100Z,8.75
2022-09-21T22:46:31.164Z,8.76
2022-09-21T22:49:00.663Z,8.77
2022-09-21T22:51:29.323Z,8.76
2022-09-21T22:53:57.833Z,8.72
2022-09-21T22:56:30.539Z,8.70
2022-09-21T23:02:46.046Z,8.69
2022-09-21T23:05:13.582Z,8.70
2022-09-21T23:07:41.070Z,8.72
2022-09-21T23:10:08.672Z,8.73
2022-09-21T23:12:37.277Z,8.75
2022-09-21T23:15:04.915Z,8.75
2022-09-21T23:17:32.305Z,8.75
2022-09-21T23:19:59.809Z,8.76
2022-09-21T23:22:27.430Z,8.77
2022-09-21T23:24:54.958Z,8.77
2022-09-21T23:27:22.370Z,8.75
2022-09-21T23:29:49.807Z,8.74
2022-09-21T23:32:17.363Z,8.77
2022-09-21T23:34:44.839Z,8.76
2022-09-21T23:37:12.306Z,8.77
2022-09-21T23:39:39.767Z,8.79
2022-09-21T23:42:07.407Z,8.79
2022-09-21T23:44:34.973Z,8.79
2022-09-21T23:47:02.538Z,8.71
2022-09-21T23:49:30.079Z,8.75
2022-09-21T23:51:57.529Z,8.75
2022-09-21T23:54:25.009Z,8.76
2022-09-21T23:56:52.435Z,8.78
2022-09-21T23:59:19.997Z,8.72
